Time;durP1;ratioP1;P1;durP2;ratioP2;P2;SDS_P1;SDS_P2;PMS_P1;PMS_P2;Temp;Humidity;BMP_temperature;BMP_pressure;BME280_temperature;BME280_humidity;BME280_pressure;Samples;Min_cycle;Max_cycle;Signal;HPM_P1;HPM_P2
2022/02/11 00:07:08;;;;;;;4.77;1.80;;;4.90;99.90;;;;;;5075803;28;20645;-55
2022/02/11 00:09:39;;;;;;;7.50;2.10;;;4.80;99.90;;;;;;5068932;28;21448;-58
2022/02/11 00:12:07;;;;;;;4.27;1.90;;;4.80;99.90;;;;;;5069342;28;20296;-58
2022/02/11 00:14:43;;;;;;;3.43;1.90;;;4.80;99.90;;;;;;5069979;28;20258;-58
2022/02/11 00:17:12;;;;;;;8.50;1.40;;;4.90;99.90;;;;;;5072444;28;20240;-58
2022/02/11 00:19:39;;;;;;;6.90;1.70;;;4.90;99.90;;;;;;5070049;28;20205;-56
2022/02/11 00:22:06;;;;;;;7.23;1.73;;;4.80;99.90;;;;;;5080291;28;20261;-59
2022/02/11 00:24:33;;;;;;;5.00;1.50;;;4.70;99.90;;;;;;5081965;28;20257;-53
2022/02/11 00:27:32;;;;;;;4.13;1.50;;;4.70;99.90;;;;;;5063576;28;20750;-61
2022/02/11 00:35:20;;;;;;;8.10;1.93;;;4.70;99.90;;;;;;5080242;28;20599;-58
2022/02/11 00:37:46;;;;;;;5.40;1.80;;;4.70;99.90;;;;;;5065687;28;20236;-58
2022/02/11 00:40:29;;;;;;;6.07;1.33;;;4.60;99.90;;;;;;5061068;28;20290;-58
2022/02/11 01:02:26;;;;;;;9.87;1.57;;;4.40;99.90;;;;;;5079008;28;20230;-56
2022/02/11 01:05:11;;;;;;;9.70;1.90;;;4.40;99.90;;;;;;5082685;28;20205;-58
2022/02/11 01:07:38;;;;;;;5.93;1.60;;;4.40;99.90;;;;;;5080409;28;20221;-58
2022/02/11 01:10:05;;;;;;;4.00;1.40;;;4.40;99.90;;;;;;5057196;28;20292;-58
2022/02/11 01:12:32;;;;;;;8.17;2.00;;;4.30;99.90;;;;;;5060659;28;20258;-62
2022/02/11 01:14:59;;;;;;;2.83;1.43;;;4.20;99.90;;;;;;5062819;28;20234;-58
2022/02/11 01:36:38;;;;;;;9.33;1.93;;;4.50;99.90;;;;;;4957628;28;20662;-58
2022/02/11 01:45:21;;;;;;;8.00;1.23;;;4.40;99.90;;;;;;5087740;28;20262;-58
2022/02/11 02:19:12;;;;;;;8.67;1.70;;;4.80;99.90;;;;;;5087478;28;20230;-58
2022/02/11 02:24:11;;;;;;;10.67;1.70;;;4.80;99.90;;;;;;5094361;28;20634;-58
2022/02/11 02:30:06;;;;;;;6.27;1.43;;;4.90;99.90;;;;;;5093280;28;20266;-59
2022/02/11 02:50:09;;;;;;;3.83;1.30;;;5.00;99.90;;;;;;5084191;28;20237;-56
2022/02/11 02:57:24;;;;;;;6.40;1.90;;;5.40;99.90;;;;;;5091314;28;20921;-59
2022/02/11 03:35:55;;;;;;;10.00;2.40;;;6.00;99.90;;;;;;5083066;28;20259;-58
2022/02/11 03:49:22;;;;;;;4.50;1.17;;;6.10;99.90;;;;;;5090231;28;20202;-56
2022/02/11 03:55:01;;;;;;;7.57;1.40;;;6.20;99.90;;;;;;5090644;28;20305;-58
2022/02/11 04:08:39;;;;;;;7.20;1.40;;;6.20;3.20;;;;;;5091369;28;20225;-59
2022/02/11 04:55:24;;;;;;;7.93;1.53;;;6.30;68.60;;;;;;5089436;28;20201;-57
2022/02/11 05:00:40;;;;;;;8.57;2.43;;;6.20;1.00;;;;;;5086564;28;20202;-54
2022/02/11 05:03:07;;;;;;;9.07;2.03;;;6.30;1.00;;;;;;5093536;28;20190;-59
2022/02/11 05:05:49;;;;;;;5.73;1.63;;;6.20;1.00;;;;;;5089030;28;20225;-58
2022/02/11 05:08:21;;;;;;;10.60;2.23;;;6.20;17.20;;;;;;5071826;28;20209;-59
2022/02/11 05:10:49;;;;;;;13.27;1.57;;;6.10;1.00;;;;;;5086262;28;20234;-58
2022/02/11 05:13:17;;;;;;;14.47;2.70;;;6.10;1.00;;;;;;5090674;28;20259;-58
2022/02/11 05:15:45;;;;;;;14.27;2.53;;;6.20;1.00;;;;;;5069315;28;20200;-59
2022/02/11 05:18:12;;;;;;;8.07;2.10;;;6.20;1.00;;;;;;5077425;28;20315;-58
2022/02/11 05:20:42;;;;;;;7.40;2.00;;;6.20;1.00;;;;;;5076009;28;20211;-60
2022/02/11 05:23:11;;;;;;;8.40;2.73;;;6.20;1.00;;;;;;5066094;28;20381;-57
2022/02/11 05:25:40;;;;;;;10.27;2.23;;;6.30;1.00;;;;;;5069632;28;20188;-58
2022/02/11 05:28:09;;;;;;;11.03;2.70;;;6.20;1.00;;;;;;5069604;28;20225;-56
2022/02/11 05:30:36;;;;;;;6.87;2.00;;;6.20;1.00;;;;;;5085549;28;20200;-59
2022/02/11 05:33:04;;;;;;;11.20;1.97;;;6.20;1.00;;;;;;5087557;28;20292;-56
2022/02/11 05:35:32;;;;;;;7.43;2.17;;;6.20;1.00;;;;;;5084186;28;20389;-57
2022/02/11 05:37:59;;;;;;;5.77;1.90;;;6.10;1.00;;;;;;5084069;28;20205;-58
2022/02/11 05:40:26;;;;;;;10.27;2.50;;;6.20;1.00;;;;;;5083828;28;20609;-59
2022/02/11 05:42:53;;;;;;;9.37;2.30;;;6.20;1.00;;;;;;5086550;28;20688;-58
2022/02/11 05:45:20;;;;;;;9.90;1.70;;;6.20;1.00;;;;;;5085642;28;20254;-58
2022/02/11 05:47:48;;;;;;;11.90;2.23;;;6.20;1.00;;;;;;5080509;28;20265;-59
2022/02/11 05:50:14;;;;;;;10.67;1.80;;;6.20;1.00;;;;;;5084459;28;20205;-59
2022/02/11 05:52:54;;;;;;;14.10;1.97;;;6.10;1.00;;;;;;5081096;28;20212;-59
2022/02/11 05:55:21;;;;;;;14.07;2.23;;;6.10;1.00;;;;;;5065472;28;20227;-57
2022/02/11 05:57:48;;;;;;;6.77;1.60;;;6.20;1.00;;;;;;5065567;28;20294;-57
2022/02/11 06:00:18;;;;;;;12.90;2.17;;;6.00;13.40;;;;;;5082545;28;20225;-59
2022/02/11 06:02:45;;;;;;;10.47;1.90;;;6.00;99.90;;;;;;5087234;28;20190;-58
2022/02/11 06:05:16;;;;;;;7.90;1.93;;;6.00;99.90;;;;;;5086364;28;20270;-58
2022/02/11 06:07:43;;;;;;;9.40;1.90;;;5.90;99.90;;;;;;5084841;28;20220;-59
2022/02/11 06:10:10;;;;;;;13.03;2.63;;;5.90;99.90;;;;;;5084691;28;20230;-57
2022/02/11 06:12:37;;;;;;;6.93;2.07;;;6.00;99.90;;;;;;5087508;28;20205;-58
2022/02/11 06:15:05;;;;;;;9.20;2.60;;;5.90;99.90;;;;;;5084385;28;20209;-59
2022/02/11 06:17:32;;;;;;;8.40;1.90;;;5.90;99.90;;;;;;5086076;28;22164;-58
2022/02/11 06:20:00;;;;;;;10.80;1.90;;;6.00;99.90;;;;;;5076899;28;20314;-55
2022/02/11 06:22:29;;;;;;;7.97;2.07;;;6.00;99.90;;;;;;5085245;28;20230;-58
2022/02/11 06:24:56;;;;;;;8.93;2.23;;;6.00;99.90;;;;;;5085863;28;20228;-58
2022/02/11 06:27:25;;;;;;;12.87;2.30;;;6.00;99.90;;;;;;5080440;28;20909;-57
2022/02/11 06:29:53;;;;;;;11.47;2.30;;;6.00;99.90;;;;;;5063120;28;20240;-58
2022/02/11 06:32:19;;;;;;;11.77;2.53;;;6.00;99.90;;;;;;5064996;28;20210;-59
2022/02/11 06:34:46;;;;;;;13.50;3.03;;;6.10;99.90;;;;;;5079700;28;20212;-58
2022/02/11 06:37:13;;;;;;;11.73;1.90;;;6.10;99.90;;;;;;5083589;28;20232;-56
2022/02/11 06:39:40;;;;;;;8.83;2.17;;;6.00;99.90;;;;;;5077149;28;20352;-58
2022/02/11 06:42:08;;;;;;;10.33;2.50;;;5.90;99.90;;;;;;5082452;28;20206;-58
2022/02/11 06:44:34;;;;;;;15.03;2.20;;;6.00;99.90;;;;;;5081043;28;20199;-58
2022/02/11 06:47:01;;;;;;;14.23;2.40;;;5.90;99.90;;;;;;5081220;28;20666;-58
2022/02/11 06:49:31;;;;;;;9.07;1.83;;;5.80;99.90;;;;;;5078047;28;20243;-58
2022/02/11 06:51:58;;;;;;;10.97;1.77;;;5.80;90.60;;;;;;5079486;28;20287;-58
2022/02/11 06:54:25;;;;;;;11.00;2.00;;;5.80;99.90;;;;;;5060145;28;20259;-59
2022/02/11 06:56:52;;;;;;;12.00;2.03;;;5.80;99.90;;;;;;5080233;28;20252;-60
2022/02/11 06:59:19;;;;;;;8.17;2.00;;;5.80;43.90;;;;;;5083991;28;20301;-56
2022/02/11 07:01:46;;;;;;;10.20;2.53;;;5.70;44.10;;;;;;5075353;28;20204;-56
2022/02/11 07:04:16;;;;;;;9.43;2.13;;;5.70;1.00;;;;;;5061857;28;20264;-57
2022/02/11 07:06:43;;;;;;;10.20;2.17;;;5.80;1.00;;;;;;5085865;28;20200;-56
2022/02/11 07:09:10;;;;;;;11.43;2.07;;;5.70;1.00;;;;;;5057265;28;20235;-59
2022/02/11 07:11:38;;;;;;;9.07;1.90;;;5.80;1.00;;;;;;5059704;28;20201;-59
2022/02/11 07:14:05;;;;;;;11.60;2.23;;;5.70;1.00;;;;;;5075888;28;20204;-56
2022/02/11 07:16:31;;;;;;;9.33;2.10;;;5.70;1.00;;;;;;5069645;28;20211;-55
2022/02/11 07:18:58;;;;;;;10.73;2.10;;;5.70;1.00;;;;;;5075906;28;20243;-57
2022/02/11 07:21:25;;;;;;;9.93;2.17;;;5.70;1.00;;;;;;5081272;28;20230;-58
2022/02/11 07:23:52;;;;;;;11.57;1.97;;;5.70;1.00;;;;;;5074744;28;20238;-57
2022/02/11 07:26:19;;;;;;;10.90;2.27;;;5.70;1.00;;;;;;5076066;28;20201;-58
2022/02/11 07:28:46;;;;;;;12.70;2.43;;;5.70;1.00;;;;;;5082190;28;20231;-58
2022/02/11 07:31:13;;;;;;;9.13;2.70;;;5.80;1.00;;;;;;5063359;28;20326;-56
2022/02/11 07:33:40;;;;;;;8.07;1.33;;;5.80;1.00;;;;;;5077506;28;20901;-56
2022/02/11 07:36:09;;;;;;;7.10;1.50;;;5.50;1.00;;;;;;5076145;28;20207;-59
2022/02/11 07:38:36;;;;;;;5.70;1.50;;;5.20;91.10;;;;;;5073366;28;20243;-56
2022/02/11 07:41:03;;;;;;;7.10;1.63;;;5.10;99.90;;;;;;5057865;28;20201;-55
2022/02/11 07:43:30;;;;;;;4.63;1.40;;;4.90;99.90;;;;;;5080029;28;20213;-58
2022/02/11 07:46:09;;;;;;;4.33;1.63;;;4.80;99.90;;;;;;5077925;28;20200;-57
2022/02/11 07:48:37;;;;;;;8.33;1.80;;;4.90;99.90;;;;;;5078410;28;20597;-58
2022/02/11 07:51:03;;;;;;;7.53;1.30;;;4.90;99.90;;;;;;5076634;28;20666;-57
2022/02/11 07:53:34;;;;;;;5.60;1.30;;;4.90;99.90;;;;;;5076877;28;20279;-55
2022/02/11 07:56:02;;;;;;;5.27;1.40;;;4.90;99.90;;;;;;5075558;28;20267;-59
2022/02/11 07:58:29;;;;;;;7.63;1.63;;;5.00;99.90;;;;;;5080731;28;20203;-57
2022/02/11 08:00:57;;;;;;;7.00;1.40;;;5.00;99.90;;;;;;5079693;28;20201;-59
2022/02/11 08:03:25;;;;;;;6.97;1.47;;;5.10;99.90;;;;;;5080922;28;20199;-58
2022/02/11 08:05:54;;;;;;;4.77;1.10;;;5.00;99.90;;;;;;5077910;28;20751;-58
2022/02/11 08:08:26;;;;;;;6.27;1.20;;;5.00;99.90;;;;;;5077520;28;20205;-56
2022/02/11 08:10:55;;;;;;;6.90;1.40;;;5.10;99.90;;;;;;5056346;28;20210;-58
2022/02/11 08:13:22;;;;;;;5.83;1.63;;;5.30;99.90;;;;;;5076936;28;20207;-59
2022/02/11 08:15:49;;;;;;;6.53;1.33;;;5.60;99.90;;;;;;5055913;28;20207;-58
2022/02/11 08:18:16;;;;;;;9.70;2.70;;;5.70;99.90;;;;;;5078198;28;20302;-58
2022/02/11 08:21:03;;;;;;;7.33;1.70;;;5.80;99.90;;;;;;5076630;28;20212;-58
2022/02/11 08:23:29;;;;;;;6.00;2.40;;;5.80;99.90;;;;;;5076724;28;20286;-58
2022/02/11 08:25:57;;;;;;;10.97;3.37;;;5.70;7.40;;;;;;5078255;28;20198;-58
2022/02/11 08:28:24;;;;;;;10.40;2.27;;;5.80;99.90;;;;;;5082810;28;20669;-57
2022/02/11 08:30:51;;;;;;;6.10;1.50;;;5.70;13.30;;;;;;5072881;28;20210;-57
2022/02/11 08:33:21;;;;;;;5.57;1.53;;;5.70;99.90;;;;;;5076080;28;20190;-58
2022/02/11 08:35:54;;;;;;;8.90;1.90;;;5.90;5.30;;;;;;5059511;28;20201;-57
2022/02/11 08:38:23;;;;;;;7.40;1.30;;;6.00;1.00;;;;;;5059846;28;20198;-57
2022/02/11 08:40:50;;;;;;;8.57;2.20;;;6.40;1.00;;;;;;5073474;28;20268;-58
2022/02/11 08:43:18;;;;;;;8.50;2.00;;;6.40;1.00;;;;;;5077233;28;20290;-59
2022/02/11 08:45:45;;;;;;;5.70;1.80;;;6.40;1.00;;;;;;5072006;28;21162;-58
2022/02/11 08:48:13;;;;;;;6.93;1.50;;;6.60;1.00;;;;;;5071586;28;20211;-58
2022/02/11 08:50:42;;;;;;;14.73;2.07;;;6.80;1.00;;;;;;5077213;28;20574;-59
2022/02/11 08:53:30;;;;;;;8.37;2.40;;;6.70;1.00;;;;;;5072303;28;20198;-57
2022/02/11 08:55:57;;;;;;;9.03;2.20;;;7.00;1.00;;;;;;5050417;28;20199;-58
2022/02/11 08:58:25;;;;;;;8.10;1.43;;;7.00;1.00;;;;;;5063978;28;20196;-58
2022/02/11 09:00:52;;;;;;;7.60;1.80;;;6.90;1.00;;;;;;5063309;28;20218;-58
2022/02/11 09:03:24;;;;;;;7.77;1.93;;;7.00;1.00;;;;;;5077426;28;20229;-59
2022/02/11 09:05:52;;;;;;;9.03;1.60;;;6.70;1.00;;;;;;5077424;28;20206;-57
2022/02/11 09:08:19;;;;;;;10.67;1.70;;;6.80;1.00;;;;;;5060242;28;20966;-57
2022/02/11 09:10:48;;;;;;;3.90;1.70;;;7.20;1.00;;;;;;5072946;28;20611;-58
2022/02/11 09:13:15;;;;;;;8.83;1.80;;;7.20;99.90;;;;;;5072371;28;20253;-59
2022/02/11 09:15:45;;;;;;;4.43;1.27;;;7.60;99.90;;;;;;5065138;28;20756;-59
2022/02/11 09:18:12;;;;;;;5.73;1.80;;;7.80;1.00;;;;;;5078824;28;20202;-59
2022/02/11 09:20:40;;;;;;;9.53;1.80;;;8.00;1.00;;;;;;5080382;28;20206;-58
2022/02/11 09:23:07;;;;;;;8.07;2.00;;;8.50;1.00;;;;;;5041150;28;20254;-59
2022/02/11 09:25:34;;;;;;;6.87;1.67;;;8.70;1.00;;;;;;5080454;28;20202;-57
2022/02/11 09:28:01;;;;;;;11.20;2.03;;;8.90;1.00;;;;;;5055699;28;20202;-59
2022/02/11 09:30:28;;;;;;;8.63;2.30;;;9.20;99.90;;;;;;5077867;28;20272;-60
2022/02/11 09:32:57;;;;;;;5.70;1.80;;;9.30;1.00;;;;;;5075636;28;20686;-59
2022/02/11 09:35:24;;;;;;;10.57;2.40;;;9.60;1.00;;;;;;5078528;28;20206;-59
2022/02/11 09:37:51;;;;;;;13.57;3.20;;;10.00;1.00;;;;;;5077088;28;20705;-61
2022/02/11 09:40:19;;;;;;;13.03;2.20;;;9.80;99.90;;;;;;5080034;28;20710;-60
2022/02/11 09:42:47;;;;;;;9.90;1.93;;;10.00;99.90;;;;;;5083080;28;20205;-61
2022/02/11 09:45:18;;;;;;;11.87;2.10;;;10.40;1.00;;;;;;5081841;28;20234;-60
2022/02/11 09:47:44;;;;;;;13.47;3.07;;;10.40;1.00;;;;;;5082831;28;20246;-61
2022/02/11 09:50:11;;;;;;;11.30;2.90;;;10.30;1.00;;;;;;5080083;28;20188;-60
2022/02/11 09:52:42;;;;;;;10.20;2.53;;;10.30;99.90;;;;;;5082285;28;20201;-60
2022/02/11 09:57:56;;;;;;;5.87;1.57;;;10.60;1.00;;;;;;5080474;28;20199;-58
2022/02/11 10:00:25;;;;;;;11.43;2.23;;;10.70;99.90;;;;;;5081678;28;20303;-60
2022/02/11 10:02:54;;;;;;;15.33;2.60;;;10.30;1.00;;;;;;5084269;28;20266;-60
2022/02/11 10:05:26;;;;;;;13.40;2.23;;;10.50;1.00;;;;;;5079762;28;20173;-59
2022/02/11 10:07:54;;;;;;;14.07;2.07;;;10.90;1.00;;;;;;5083738;28;20268;-60
2022/02/11 10:13:19;;;;;;;8.83;2.07;;;10.50;99.90;;;;;;5083279;28;20270;-60
2022/02/11 10:15:55;;;;;;;9.73;2.97;;;10.60;1.00;;;;;;5081946;28;20646;-59
2022/02/11 10:18:27;;;;;;;11.97;2.20;;;10.30;1.00;;;;;;5075017;28;20213;-60
2022/02/11 10:21:05;;;;;;;12.90;2.00;;;10.40;1.00;;;;;;5051955;28;20220;-59
2022/02/11 10:23:41;;;;;;;14.53;2.20;;;10.40;1.00;;;;;;5070065;28;20235;-59
2022/02/11 10:26:10;;;;;;;6.50;1.77;;;10.20;99.90;;;;;;5079362;28;20200;-59
2022/02/11 10:28:47;;;;;;;7.80;2.93;;;9.90;1.00;;;;;;5086714;28;20643;-59
2022/02/11 10:31:33;;;;;;;6.73;1.80;;;9.70;1.00;;;;;;5061728;28;20202;-56
2022/02/11 10:34:03;;;;;;;7.40;2.20;;;9.30;1.00;;;;;;5062041;28;20204;-63
2022/02/11 10:36:41;;;;;;;11.23;2.00;;;9.20;1.00;;;;;;5080491;28;20760;-62
2022/02/11 10:39:27;;;;;;;9.27;1.93;;;9.10;1.00;;;;;;5079901;28;20203;-62
2022/02/11 10:41:55;;;;;;;8.20;1.70;;;8.60;1.00;;;;;;5059612;28;20640;-60
2022/02/11 10:44:29;;;;;;;8.50;2.07;;;8.20;1.00;;;;;;5082417;28;20234;-60
2022/02/11 10:47:19;;;;;;;9.73;1.63;;;8.10;1.00;;;;;;5065528;28;20201;-61
2022/02/11 10:49:48;;;;;;;8.23;1.80;;;8.40;1.00;;;;;;5065674;28;20256;-61
2022/02/11 10:52:17;;;;;;;13.00;2.27;;;8.60;87.70;;;;;;5045770;28;20601;-62
2022/02/11 10:54:50;;;;;;;8.27;2.00;;;9.20;99.90;;;;;;5064105;28;20294;-58
2022/02/11 10:57:20;;;;;;;7.90;1.67;;;9.60;1.00;;;;;;5080819;28;20214;-60
2022/02/11 10:59:48;;;;;;;8.13;1.73;;;8.90;1.00;;;;;;5083420;28;20245;-58
2022/02/11 11:02:17;;;;;;;7.83;1.23;;;9.10;99.90;;;;;;5084719;28;20207;-59
2022/02/11 11:04:46;;;;;;;8.00;2.23;;;9.10;99.90;;;;;;5083567;28;20240;-59
2022/02/11 11:07:25;;;;;;;5.97;1.40;;;9.50;1.00;;;;;;5081858;28;20544;-57
2022/02/11 11:10:13;;;;;;;8.60;1.90;;;9.80;99.90;;;;;;5077669;28;20232;-57
2022/02/11 11:12:53;;;;;;;10.60;3.10;;;9.60;1.00;;;;;;5079285;28;20326;-60
2022/02/11 11:15:22;;;;;;;10.20;1.70;;;9.40;99.90;;;;;;5075299;28;20583;-58
2022/02/11 11:17:50;;;;;;;8.47;1.83;;;9.10;1.00;;;;;;5080011;28;20234;-62
2022/02/11 11:20:20;;;;;;;7.93;1.77;;;8.70;1.00;;;;;;5061415;28;20218;-59
2022/02/11 11:22:53;;;;;;;3.93;1.50;;;8.70;1.00;;;;;;5079234;28;20342;-60
2022/02/11 11:25:20;;;;;;;5.53;1.73;;;8.40;1.00;;;;;;5076158;28;20208;-60
2022/02/11 11:27:54;;;;;;;7.27;1.77;;;8.50;99.90;;;;;;5076361;28;20755;-60
2022/02/11 11:30:40;;;;;;;11.13;1.77;;;8.20;1.00;;;;;;5077592;28;20728;-58
2022/02/11 11:33:09;;;;;;;6.73;2.10;;;8.20;1.00;;;;;;5057169;28;20588;-59
2022/02/11 11:36:04;;;;;;;8.97;2.10;;;8.10;1.00;;;;;;5074125;28;20228;-60
2022/02/11 11:38:39;;;;;;;9.50;1.53;;;8.20;1.00;;;;;;5075354;28;20206;-58
2022/02/11 11:41:21;;;;;;;7.87;1.50;;;8.00;1.00;;;;;;5080701;28;20333;-57
2022/02/11 11:43:50;;;;;;;11.20;1.83;;;8.10;1.00;;;;;;5073090;28;20656;-56
2022/02/11 11:46:17;;;;;;;13.43;2.03;;;8.20;1.00;;;;;;5077921;28;20245;-59
2022/02/11 11:48:51;;;;;;;9.17;1.80;;;8.40;1.00;;;;;;5079755;28;20331;-60
2022/02/11 11:51:19;;;;;;;8.37;2.03;;;8.50;1.00;;;;;;5057758;28;20231;-59
2022/02/11 11:53:46;;;;;;;8.90;2.10;;;8.80;1.00;;;;;;5082888;28;20213;-59
2022/02/11 11:56:55;;;;;;;6.87;1.80;;;9.10;99.90;;;;;;5079985;28;20306;-60
2022/02/11 11:59:29;;;;;;;7.57;1.50;;;9.60;1.00;;;;;;5066211;28;21333;-59
2022/02/11 12:02:05;;;;;;;4.83;1.33;;;9.40;1.00;;;;;;5076534;28;20664;-59
2022/02/11 12:04:39;;;;;;;5.73;1.73;;;9.50;1.00;;;;;;5072044;28;20202;-60
2022/02/11 12:07:07;;;;;;;7.27;1.30;;;10.10;1.00;;;;;;5070164;28;20648;-59
2022/02/11 12:09:34;;;;;;;6.50;1.20;;;10.10;1.00;;;;;;5068162;28;20263;-58
2022/02/11 12:12:04;;;;;;;4.07;1.33;;;9.90;99.90;;;;;;5077964;28;20691;-59
2022/02/11 12:14:33;;;;;;;4.67;1.40;;;9.90;99.90;;;;;;5070684;28;20658;-60
2022/02/11 12:17:02;;;;;;;3.47;1.00;;;10.10;1.00;;;;;;5069480;28;20671;-60
2022/02/11 12:19:30;;;;;;;7.73;1.67;;;10.20;97.50;;;;;;5069982;28;20728;-55
2022/02/11 12:21:58;;;;;;;7.00;1.20;;;10.50;1.00;;;;;;5082081;28;20270;-60
2022/02/11 12:27:20;;;;;;;7.00;1.33;;;11.20;99.90;;;;;;5081684;28;20254;-58
2022/02/11 12:29:50;;;;;;;4.77;1.10;;;11.40;80.00;;;;;;5083127;28;20241;-59
2022/02/11 12:32:19;;;;;;;5.00;1.40;;;11.50;99.90;;;;;;5064307;28;20262;-58
2022/02/11 12:34:51;;;;;;;8.00;1.23;;;11.20;99.90;;;;;;5057391;28;20225;-58
2022/02/11 12:37:19;;;;;;;4.53;1.10;;;10.40;99.90;;;;;;5082282;28;20858;-59
2022/02/11 12:39:47;;;;;;;2.73;1.00;;;10.60;99.90;;;;;;5077843;28;20649;-59
2022/02/11 12:42:19;;;;;;;6.67;1.10;;;10.80;99.90;;;;;;5062489;28;20776;-59
2022/02/11 12:44:46;;;;;;;3.60;1.10;;;11.50;99.90;;;;;;5058587;28;20227;-58
2022/02/11 12:47:15;;;;;;;3.23;1.30;;;11.50;99.90;;;;;;5079936;28;20236;-58
2022/02/11 12:49:48;;;;;;;7.63;0.90;;;11.20;99.90;;;;;;5066493;28;20220;-58
2022/02/11 12:52:25;;;;;;;4.17;1.00;;;11.40;99.90;;;;;;5080761;28;20261;-58
2022/02/11 12:55:18;;;;;;;2.13;0.77;;;11.10;99.90;;;;;;5076314;28;20208;-58
2022/02/11 12:57:50;;;;;;;5.73;1.67;;;11.80;99.90;;;;;;5071337;28;20619;-58
2022/02/11 13:00:24;;;;;;;8.93;1.40;;;12.40;99.90;;;;;;5076066;28;20245;-59
2022/02/11 13:02:55;;;;;;;4.87;1.20;;;12.10;99.90;;;;;;5075769;28;20285;-64
2022/02/11 13:05:24;;;;;;;3.10;0.97;;;11.40;99.90;;;;;;5075426;28;20223;-59
2022/02/11 13:07:53;;;;;;;5.33;1.37;;;11.60;99.90;;;;;;5075032;28;20296;-59
2022/02/11 13:10:25;;;;;;;5.20;1.40;;;12.10;99.90;;;;;;5081522;28;20633;-59
2022/02/11 13:12:54;;;;;;;5.13;1.23;;;10.70;99.90;;;;;;5078398;28;20604;-59
2022/02/11 13:15:27;;;;;;;2.83;1.20;;;11.00;99.90;;;;;;5071290;28;20290;-58
2022/02/11 13:18:04;;;;;;;3.33;0.87;;;11.00;99.90;;;;;;5072365;28;20209;-57
2022/02/11 13:20:36;;;;;;;8.07;1.13;;;11.10;99.90;;;;;;5075559;28;20597;-57
2022/02/11 13:23:03;;;;;;;4.67;1.30;;;10.80;99.90;;;;;;5078518;28;20232;-59
2022/02/11 13:25:31;;;;;;;6.73;1.27;;;11.20;99.90;;;;;;5076637;28;20293;-59
2022/02/11 13:28:06;;;;;;;2.53;1.00;;;11.50;99.90;;;;;;5075739;28;20630;-59
2022/02/11 13:30:34;;;;;;;4.10;1.20;;;11.00;99.90;;;;;;5059697;28;20305;-58
2022/02/11 13:33:33;;;;;;;5.30;1.13;;;10.70;99.90;;;;;;5077799;28;20880;-58
2022/02/11 13:36:09;;;;;;;3.40;1.27;;;11.60;99.90;;;;;;5074060;28;20238;-59
2022/02/11 13:38:38;;;;;;;3.13;1.10;;;12.40;99.90;;;;;;5078764;28;20331;-65
2022/02/11 13:41:10;;;;;;;4.97;1.37;;;12.20;99.90;;;;;;5078882;28;20218;-59
2022/02/11 13:43:48;;;;;;;7.40;1.20;;;11.80;99.90;;;;;;5077556;28;20659;-61
2022/02/11 13:46:30;;;;;;;3.77;0.90;;;11.60;99.90;;;;;;5077929;28;20203;-59
2022/02/11 13:49:02;;;;;;;4.37;1.17;;;11.20;99.90;;;;;;5079630;28;21672;-58
2022/02/11 13:51:29;;;;;;;8.00;1.27;;;10.70;1.00;;;;;;5082483;28;20226;-60
2022/02/11 13:53:56;;;;;;;8.60;1.20;;;11.40;99.90;;;;;;5081198;28;20584;-59
2022/02/11 13:56:37;;;;;;;6.50;1.27;;;11.80;99.90;;;;;;5058541;28;20207;-60
2022/02/11 13:59:08;;;;;;;6.93;1.00;;;10.90;99.90;;;;;;5066914;28;20234;-58
2022/02/11 14:01:38;;;;;;;2.87;1.07;;;10.50;99.90;;;;;;5080081;28;20223;-58
2022/02/11 14:04:10;;;;;;;7.20;1.70;;;10.80;1.00;;;;;;5081780;28;20776;-62
2022/02/11 14:06:56;;;;;;;4.67;1.00;;;10.30;1.00;;;;;;5061058;28;20198;-59
2022/02/11 14:09:26;;;;;;;4.53;1.10;;;9.90;1.00;;;;;;5077137;28;20222;-60
2022/02/11 14:11:53;;;;;;;3.73;1.50;;;9.90;1.00;;;;;;5077323;28;20745;-59
2022/02/11 14:14:25;;;;;;;4.23;1.20;;;9.60;99.90;;;;;;5073182;28;20198;-62
2022/02/11 14:16:56;;;;;;;4.87;1.17;;;10.10;99.90;;;;;;5076469;28;20207;-59
2022/02/11 14:19:24;;;;;;;7.93;1.67;;;9.40;99.90;;;;;;5064585;28;20195;-60
2022/02/11 14:21:52;;;;;;;11.57;1.80;;;9.40;1.00;;;;;;5082265;28;20218;-60
2022/02/11 14:24:22;;;;;;;3.93;1.40;;;9.70;1.00;;;;;;5079903;28;20599;-60
2022/02/11 14:26:51;;;;;;;4.93;1.27;;;9.80;1.00;;;;;;5084943;28;20203;-61
2022/02/11 14:29:18;;;;;;;6.60;1.13;;;9.80;99.90;;;;;;5083007;28;20350;-59
2022/02/11 14:31:47;;;;;;;6.80;0.87;;;10.10;14.20;;;;;;5057048;28;20229;-59
2022/02/11 14:34:15;;;;;;;6.53;1.60;;;9.60;99.90;;;;;;5085609;28;20544;-59
2022/02/11 14:36:43;;;;;;;6.43;1.33;;;9.40;1.00;;;;;;5079030;28;20296;-58
2022/02/11 14:39:13;;;;;;;6.93;1.37;;;9.80;99.90;;;;;;5066138;28;20735;-59
2022/02/11 14:41:46;;;;;;;8.47;1.50;;;10.00;1.00;;;;;;5080542;28;20612;-61
2022/02/11 14:44:25;;;;;;;3.60;1.40;;;10.20;1.00;;;;;;5079124;28;20292;-59
2022/02/11 14:46:58;;;;;;;7.77;1.70;;;10.50;1.00;;;;;;5081881;28;20251;-58
2022/02/11 14:49:26;;;;;;;5.93;1.80;;;10.10;1.00;;;;;;5073282;28;20294;-60
2022/02/11 14:51:56;;;;;;;7.33;1.30;;;10.10;1.00;;;;;;5064561;28;20599;-60
2022/02/11 14:54:24;;;;;;;8.43;1.57;;;10.20;1.00;;;;;;5060505;28;20364;-58
2022/02/11 14:56:54;;;;;;;8.43;1.30;;;9.80;1.00;;;;;;5080584;28;20521;-59
2022/02/11 14:59:22;;;;;;;5.30;1.40;;;9.80;1.00;;;;;;5081793;28;20203;-58
2022/02/11 15:01:49;;;;;;;8.17;1.90;;;9.40;1.00;;;;;;5078209;28;20246;-60
2022/02/11 15:04:16;;;;;;;8.43;1.97;;;9.60;1.00;;;;;;5065383;28;20253;-60
2022/02/11 15:06:48;;;;;;;5.23;1.20;;;9.60;1.00;;;;;;5080898;28;20263;-59
2022/02/11 15:09:15;;;;;;;5.60;1.30;;;9.80;1.00;;;;;;5075879;28;20225;-57
2022/02/11 15:11:42;;;;;;;4.43;1.40;;;10.10;99.90;;;;;;5058131;28;20218;-57
2022/02/11 15:14:10;;;;;;;6.67;1.60;;;10.50;1.00;;;;;;5059580;28;20205;-59
2022/02/11 15:16:38;;;;;;;7.80;1.63;;;10.90;1.00;;;;;;5080623;28;20199;-60
2022/02/11 15:19:06;;;;;;;6.20;1.30;;;10.70;99.90;;;;;;5083135;28;20299;-59
2022/02/11 15:21:33;;;;;;;5.93;1.57;;;10.30;1.00;;;;;;5076229;28;20207;-59
2022/02/11 15:24:01;;;;;;;7.33;1.77;;;10.10;1.00;;;;;;5081128;28;20671;-60
2022/02/11 15:26:28;;;;;;;9.00;1.53;;;9.80;1.00;;;;;;5075615;28;20252;-59
2022/02/11 15:28:56;;;;;;;8.30;2.57;;;9.80;1.00;;;;;;5083596;28;20198;-59
2022/02/11 15:31:23;;;;;;;9.40;1.67;;;9.70;99.90;;;;;;5081022;28;20237;-58
2022/02/11 15:33:51;;;;;;;9.27;1.87;;;9.70;1.00;;;;;;5084228;28;20214;-59
2022/02/11 15:36:18;;;;;;;5.77;1.87;;;9.20;99.90;;;;;;5082080;28;20304;-61
2022/02/11 15:38:45;;;;;;;4.93;1.47;;;8.90;1.00;;;;;;5057407;28;20291;-59
2022/02/11 15:41:12;;;;;;;7.67;2.20;;;9.10;1.00;;;;;;5065249;28;20228;-60
2022/02/11 15:43:39;;;;;;;7.13;2.30;;;9.00;1.00;;;;;;5080093;28;20283;-58
2022/02/11 15:46:08;;;;;;;9.30;2.13;;;8.80;1.00;;;;;;5074431;28;20210;-60
2022/02/11 15:48:39;;;;;;;7.47;2.13;;;8.60;1.00;;;;;;5074981;28;20217;-59
2022/02/11 15:51:08;;;;;;;10.00;2.40;;;8.70;1.00;;;;;;5071402;28;20232;-58
2022/02/11 15:53:35;;;;;;;9.03;2.93;;;8.70;1.00;;;;;;5067552;28;20238;-58
2022/02/11 15:56:03;;;;;;;6.10;2.00;;;8.80;1.00;;;;;;5070655;28;20217;-56
2022/02/11 15:58:30;;;;;;;10.37;2.07;;;8.80;99.90;;;;;;5067383;28;20354;-58
2022/02/11 16:00:57;;;;;;;6.00;1.70;;;8.60;1.00;;;;;;5069159;28;20218;-56
2022/02/11 16:03:25;;;;;;;7.57;1.60;;;8.60;1.00;;;;;;5068576;28;20209;-61
2022/02/11 16:05:55;;;;;;;8.83;2.10;;;8.40;1.00;;;;;;5068134;28;20216;-60
2022/02/11 16:08:22;;;;;;;8.10;1.60;;;8.60;1.00;;;;;;5070872;28;20239;-56
2022/02/11 16:10:49;;;;;;;7.50;1.70;;;8.60;1.00;;;;;;5062473;28;20262;-60
2022/02/11 16:13:15;;;;;;;6.10;2.00;;;8.60;1.00;;;;;;5068236;28;20292;-57
2022/02/11 16:15:42;;;;;;;9.27;1.87;;;8.60;99.90;;;;;;5052588;28;20614;-58
2022/02/11 16:18:14;;;;;;;11.13;3.30;;;8.30;1.00;;;;;;5070866;28;20196;-59
2022/02/11 16:20:46;;;;;;;6.77;2.37;;;8.30;1.00;;;;;;5064552;28;20233;-58
2022/02/11 16:23:15;;;;;;;7.87;2.87;;;8.30;21.30;;;;;;5061701;28;20237;-56
2022/02/11 16:25:43;;;;;;;9.13;2.43;;;8.00;99.90;;;;;;5051555;28;20202;-58
2022/02/11 16:28:13;;;;;;;11.23;2.30;;;8.10;1.00;;;;;;5051923;28;20203;-58
2022/02/11 16:30:41;;;;;;;7.63;1.90;;;8.20;1.00;;;;;;5029625;28;20193;-59
2022/02/11 16:33:08;;;;;;;7.23;2.57;;;8.10;99.90;;;;;;5057577;28;20194;-59
2022/02/11 16:35:38;;;;;;;6.67;2.77;;;8.10;1.00;;;;;;5054606;28;20690;-59
2022/02/11 16:38:07;;;;;;;9.07;2.70;;;8.10;1.00;;;;;;5061081;28;20295;-59
2022/02/11 16:40:33;;;;;;;7.63;2.60;;;8.20;1.00;;;;;;5050498;28;20257;-61
2022/02/11 16:43:01;;;;;;;7.83;3.60;;;8.20;99.90;;;;;;5053276;28;20317;-59
2022/02/11 16:45:31;;;;;;;7.40;3.00;;;8.10;99.90;;;;;;5047111;28;21323;-58
2022/02/11 16:47:57;;;;;;;7.83;2.63;;;8.00;9.80;;;;;;5049291;28;20397;-58
2022/02/11 16:50:25;;;;;;;11.27;2.83;;;8.10;99.90;;;;;;5030657;28;20816;-59
2022/02/11 16:52:52;;;;;;;5.10;1.97;;;8.10;1.00;;;;;;5039682;28;20287;-57
2022/02/11 16:55:19;;;;;;;7.33;2.37;;;8.00;1.00;;;;;;5050514;28;20285;-60
2022/02/11 16:57:46;;;;;;;7.50;2.37;;;7.90;1.00;;;;;;5054785;28;20387;-59
2022/02/11 17:00:13;;;;;;;9.97;2.90;;;7.70;1.00;;;;;;5057147;28;20205;-59
2022/02/11 17:02:41;;;;;;;7.20;3.27;;;7.70;1.00;;;;;;5054503;28;20226;-56
2022/02/11 17:05:08;;;;;;;7.97;2.80;;;7.60;99.90;;;;;;5056319;28;20733;-59